createdAt,value
2023-05-22T00:01:30.172Z,12.20
2023-05-22T00:03:57.336Z,13.57
2023-05-22T00:06:24.720Z,13.40
2023-05-22T00:08:51.912Z,12.88
2023-05-22T00:11:19.091Z,12.57
2023-05-22T00:13:46.583Z,13.15
2023-05-22T00:16:13.756Z,13.15
2023-05-22T00:18:44.976Z,13.38
2023-05-22T00:21:12.156Z,13.02
2023-05-22T00:23:39.288Z,13.40
2023-05-22T00:26:06.356Z,13.45
2023-05-22T00:28:33.564Z,13.55
2023-05-22T00:31:00.770Z,13.77
2023-05-22T00:33:27.924Z,12.77
2023-05-22T00:35:55.056Z,13.65
2023-05-22T00:38:48.597Z,13.52
2023-05-22T00:41:15.799Z,13.63
2023-05-22T00:43:42.838Z,13.57
2023-05-22T00:46:10.130Z,14.23
2023-05-22T00:48:37.218Z,13.63
2023-05-22T00:51:05.052Z,14.32
2023-05-22T00:53:32.183Z,14.02
2023-05-22T00:56:00.045Z,13.60
2023-05-22T00:58:27.689Z,14.07
2023-05-22T01:00:55.836Z,13.73
2023-05-22T01:03:27.213Z,13.85
2023-05-22T01:05:55.875Z,14.93
2023-05-22T01:08:23.622Z,14.48
2023-05-22T01:11:02.274Z,13.75
2023-05-22T01:13:47.028Z,13.23
2023-05-22T01:16:47.132Z,13.52
2023-05-22T01:19:47.782Z,12.70
2023-05-22T01:22:43.458Z,13.73
2023-05-22T01:25:36.139Z,13.70
2023-05-22T01:28:14.056Z,13.95
2023-05-22T01:31:11.358Z,13.07
2023-05-22T01:33:49.017Z,13.07
2023-05-22T01:36:22.572Z,13.15
2023-05-22T01:38:51.508Z,13.70
2023-05-22T01:41:19.510Z,14.05
2023-05-22T01:43:46.843Z,13.23
2023-05-22T01:46:14.350Z,13.35
2023-05-22T01:48:41.461Z,13.90
2023-05-22T01:51:20.479Z,13.75
2023-05-22T01:54:18.359Z,13.38
2023-05-22T01:56:57.498Z,13.63
2023-05-22T01:59:34.675Z,14.13
2023-05-22T02:02:06.645Z,13.88
2023-05-22T02:04:38.971Z,13.73
2023-05-22T02:07:07.719Z,14.18
2023-05-22T02:09:36.347Z,13.95
2023-05-22T02:12:03.993Z,13.32
2023-05-22T02:14:31.739Z,14.32
2023-05-22T02:17:02.260Z,13.57
2023-05-22T02:19:29.460Z,13.15
2023-05-22T02:21:56.689Z,14.38
2023-05-22T02:24:23.887Z,13.85
2023-05-22T02:26:51.469Z,14.48
2023-05-22T02:29:18.660Z,13.95
2023-05-22T02:31:45.886Z,14.20
2023-05-22T02:34:13.004Z,14.30
2023-05-22T02:36:41.147Z,13.57
2023-05-22T02:39:09.015Z,14.75
2023-05-22T02:41:36.075Z,15.15
2023-05-22T02:44:03.241Z,13.65
2023-05-22T02:46:30.333Z,13.75
2023-05-22T02:48:57.454Z,13.77
2023-05-22T02:51:24.601Z,13.40
2023-05-22T02:53:51.990Z,14.32
2023-05-22T02:56:19.206Z,13.73
2023-05-22T02:58:46.305Z,13.90
2023-05-22T03:01:13.403Z,15.02
2023-05-22T03:03:40.661Z,14.00
2023-05-22T03:06:09.030Z,14.73
2023-05-22T03:08:38.545Z,15.13
2023-05-22T03:11:05.608Z,14.52
2023-05-22T03:13:32.682Z,15.43
2023-05-22T03:16:00.021Z,14.85
2023-05-22T03:18:27.623Z,15.77
2023-05-22T03:20:55.012Z,15.25
2023-05-22T03:23:22.126Z,15.73
2023-05-22T03:25:49.357Z,16.13
2023-05-22T03:28:16.804Z,15.88
2023-05-22T03:30:43.968Z,15.77
2023-05-22T03:33:11.921Z,16.17
2023-05-22T03:35:39.152Z,16.92
2023-05-22T03:38:06.229Z,16.75
2023-05-22T03:40:33.248Z,16.75
2023-05-22T03:43:00.383Z,18.73
2023-05-22T03:45:27.496Z,16.02
2023-05-22T03:47:54.686Z,16.67
2023-05-22T03:50:21.805Z,16.63
2023-05-22T03:52:48.922Z,17.23
2023-05-22T03:55:16.528Z,17.88
2023-05-22T03:57:43.608Z,18.13
2023-05-22T04:00:12.011Z,18.67
2023-05-22T04:02:39.299Z,18.95
2023-05-22T04:05:10.246Z,18.23
2023-05-22T04:07:37.408Z,19.35
2023-05-22T04:10:05.698Z,19.63
2023-05-22T04:12:32.830Z,19.83
2023-05-22T04:15:00.018Z,21.23
2023-05-22T04:17:32.956Z,21.83
2023-05-22T04:20:00.781Z,21.90
2023-05-22T04:22:32.156Z,20.02
2023-05-22T04:24:59.431Z,20.27
2023-05-22T04:27:27.248Z,20.05
2023-05-22T04:29:55.054Z,20.70
2023-05-22T04:32:23.926Z,20.13
2023-05-22T04:34:51.237Z,21.55
2023-05-22T04:37:20.530Z,21.70
2023-05-22T04:39:48.400Z,24.45
2023-05-22T04:42:16.182Z,26.52
2023-05-22T04:44:43.789Z,29.77
2023-05-22T04:47:14.684Z,29.20
2023-05-22T04:49:45.849Z,30.17
2023-05-22T04:52:12.910Z,29.92
2023-05-22T04:54:40.076Z,29.65
2023-05-22T04:57:07.222Z,30.23
2023-05-22T04:59:40.288Z,30.75
2023-05-22T05:02:07.664Z,30.27
2023-05-22T05:04:35.227Z,29.67
2023-05-22T05:07:03.713Z,30.10
2023-05-22T05:09:30.987Z,29.15
2023-05-22T05:11:58.486Z,29.23
2023-05-22T05:14:26.255Z,28.45
2023-05-22T05:16:53.635Z,29.02
2023-05-22T05:19:21.686Z,29.65
2023-05-22T05:21:52.586Z,29.70
2023-05-22T05:24:19.781Z,29.05
2023-05-22T05:26:46.865Z,30.38
2023-05-22T05:29:13.976Z,30.92
2023-05-22T05:31:41.225Z,30.55
2023-05-22T05:34:08.371Z,30.25
2023-05-22T05:36:35.829Z,30.25
2023-05-22T05:39:02.977Z,30.75
2023-05-22T05:41:30.101Z,31.10
2023-05-22T05:44:00.239Z,28.30
2023-05-22T05:46:27.497Z,28.40
2023-05-22T05:48:54.639Z,27.88
2023-05-22T05:51:22.397Z,27.38
2023-05-22T05:53:49.648Z,27.17
2023-05-22T05:56:16.814Z,28.05
2023-05-22T05:58:43.911Z,26.70
2023-05-22T06:01:12.199Z,27.58
2023-05-22T06:03:39.508Z,27.92
2023-05-22T06:06:07.483Z,27.80
2023-05-22T06:08:34.696Z,27.10
2023-05-22T06:11:02.425Z,27.40
2023-05-22T06:13:29.648Z,28.73
2023-05-22T06:15:58.782Z,28.58
2023-05-22T06:18:27.659Z,29.98
2023-05-22T06:20:54.727Z,29.35
2023-05-22T06:23:21.847Z,30.77
2023-05-22T06:25:49.050Z,30.73
2023-05-22T06:28:16.214Z,30.77
2023-05-22T06:30:43.645Z,31.55
2023-05-22T06:33:10.967Z,32.47
2023-05-22T06:35:38.641Z,33.42
2023-05-22T06:38:05.819Z,32.30
2023-05-22T06:40:32.910Z,33.50
2023-05-22T06:42:59.995Z,31.45
2023-05-22T06:45:27.176Z,32.08
2023-05-22T06:47:55.214Z,31.23
2023-05-22T06:50:22.715Z,31.83
2023-05-22T06:52:49.968Z,33.63
2023-05-22T06:55:17.347Z,32.85
2023-05-22T06:57:44.428Z,34.92
2023-05-22T07:00:12.961Z,35.35
2023-05-22T07:02:40.254Z,34.92
2023-05-22T07:05:07.695Z,35.75
2023-05-22T07:07:34.824Z,37.05
2023-05-22T07:10:02.131Z,34.90
2023-05-22T07:12:29.853Z,37.90
2023-05-22T07:14:58.025Z,35.40
2023-05-22T07:17:25.169Z,40.00
2023-05-22T07:19:52.319Z,38.20
2023-05-22T07:22:19.411Z,36.53
2023-05-22T07:24:47.576Z,38.40
2023-05-22T07:27:15.092Z,38.08
2023-05-22T07:29:42.233Z,36.92
2023-05-22T07:32:09.394Z,39.95
2023-05-22T07:34:36.523Z,39.65
2023-05-22T07:37:09.216Z,37.97
2023-05-22T07:39:36.388Z,40.25
2023-05-22T07:42:04.997Z,39.95
2023-05-22T07:44:32.120Z,39.42
2023-05-22T07:46:59.745Z,40.88
2023-05-22T07:49:26.950Z,40.50
2023-05-22T07:51:54.077Z,38.95
2023-05-22T07:54:21.261Z,39.30
2023-05-22T07:56:48.409Z,37.25
2023-05-22T07:59:16.209Z,36.67
2023-05-22T08:01:43.376Z,34.95
2023-05-22T08:04:10.880Z,37.35
2023-05-22T08:06:39.729Z,38.55
2023-05-22T08:09:06.922Z,39.83
2023-05-22T08:11:34.314Z,37.55
2023-05-22T08:14:01.670Z,37.42
2023-05-22T08:16:28.964Z,39.13
2023-05-22T08:18:56.250Z,37.15
2023-05-22T08:21:23.345Z,36.85
2023-05-22T08:23:50.579Z,36.85
2023-05-22T08:26:17.750Z,36.13
2023-05-22T08:28:45.092Z,37.30
2023-05-22T08:31:12.902Z,39.63
2023-05-22T08:33:40.269Z,40.72
2023-05-22T08:36:07.420Z,40.53
2023-05-22T08:38:34.845Z,39.80
2023-05-22T08:41:01.937Z,37.78
2023-05-22T08:43:29.424Z,36.53
2023-05-22T08:46:08.851Z,40.25
2023-05-22T08:48:36.403Z,37.78
2023-05-22T08:51:05.278Z,39.08
2023-05-22T08:53:37.285Z,38.67
2023-05-22T08:56:07.200Z,40.65
2023-05-22T08:58:36.330Z,40.40
2023-05-22T09:01:07.555Z,41.00
2023-05-22T09:03:37.054Z,41.78
2023-05-22T09:06:04.766Z,41.85
2023-05-22T09:08:31.999Z,38.20
2023-05-22T09:10:59.081Z,40.72
2023-05-22T09:13:28.266Z,42.15
2023-05-22T09:16:16.110Z,44.22
2023-05-22T09:18:43.337Z,41.90
2023-05-22T09:21:25.918Z,45.95
2023-05-22T09:24:01.745Z,46.88
2023-05-22T09:26:29.651Z,47.72
2023-05-22T09:28:59.156Z,48.13
2023-05-22T09:31:26.396Z,51.13
2023-05-22T09:33:56.094Z,51.45
2023-05-22T09:36:30.195Z,53.65
2023-05-22T09:38:59.870Z,52.17
2023-05-22T09:41:28.302Z,51.55
2023-05-22T09:43:55.737Z,54.92
2023-05-22T09:46:22.991Z,53.10
2023-05-22T09:48:53.591Z,50.85
2023-05-22T09:51:29.533Z,51.80
2023-05-22T09:54:03.637Z,50.20
2023-05-22T09:56:39.043Z,48.88
2023-05-22T09:59:09.610Z,49.92
2023-05-22T10:01:40.080Z,46.70
2023-05-22T10:04:11.087Z,48.65
2023-05-22T10:06:39.582Z,45.42
2023-05-22T10:09:18.275Z,45.35
2023-05-22T10:11:47.612Z,46.10
2023-05-22T10:14:16.009Z,47.58
2023-05-22T10:16:45.100Z,43.53
2023-05-22T10:19:13.284Z,44.55
2023-05-22T10:21:42.489Z,44.45
2023-05-22T10:24:11.273Z,44.58
2023-05-22T10:26:39.292Z,45.55
2023-05-22T10:29:35.753Z,44.65
2023-05-22T10:32:13.772Z,44.38
2023-05-22T10:35:11.287Z,44.50
2023-05-22T10:38:16.980Z,45.20
2023-05-22T10:40:46.848Z,49.83
2023-05-22T10:43:14.475Z,45.95
2023-05-22T10:48:11.971Z,47.25
2023-05-22T10:50:40.200Z,45.67
2023-05-22T10:53:28.158Z,49.65
2023-05-22T10:55:57.081Z,48.08
2023-05-22T10:58:31.990Z,45.10
2023-05-22T11:01:10.731Z,45.83
2023-05-22T11:04:10.685Z,46.50
2023-05-22T11:07:05.692Z,43.10
2023-05-22T11:09:34.745Z,41.47
2023-05-22T11:12:16.840Z,43.08
2023-05-22T11:15:00.062Z,38.30
2023-05-22T11:17:32.335Z,37.45
2023-05-22T11:20:24.935Z,36.55
2023-05-22T11:23:01.292Z,34.33
2023-05-22T11:25:29.233Z,33.58
2023-05-22T11:27:57.868Z,30.23
2023-05-22T11:30:28.756Z,30.52
2023-05-22T11:32:57.584Z,31.98
2023-05-22T11:35:25.079Z,31.33
2023-05-22T11:37:53.697Z,31.40
2023-05-22T11:40:24.653Z,30.15
2023-05-22T11:42:52.740Z,31.83
2023-05-22T11:45:21.884Z,31.75
2023-05-22T11:47:49.931Z,32.85
2023-05-22T11:50:25.927Z,29.05
2023-05-22T11:53:02.970Z,30.10
2023-05-22T11:55:30.123Z,30.70
2023-05-22T11:57:58.758Z,29.52
2023-05-22T12:00:26.616Z,31.85
2023-05-22T12:02:54.714Z,30.27
2023-05-22T12:05:22.313Z,31.83
2023-05-22T12:07:49.904Z,32.78
2023-05-22T12:10:17.002Z,35.78
2023-05-22T12:12:44.508Z,32.72
2023-05-22T12:15:11.964Z,33.45
2023-05-22T12:17:40.206Z,30.55
2023-05-22T12:20:07.669Z,31.10
2023-05-22T12:22:42.509Z,29.83
2023-05-22T12:25:20.408Z,30.27
2023-05-22T12:27:47.729Z,30.85
2023-05-22T12:30:15.588Z,37.55
2023-05-22T12:32:53.162Z,32.63
2023-05-22T12:35:20.282Z,28.60
2023-05-22T12:37:52.139Z,29.90
2023-05-22T12:40:20.681Z,28.85
2023-05-22T12:42:49.677Z,27.58
2023-05-22T12:45:18.218Z,27.63
2023-05-22T12:47:45.531Z,27.48
2023-05-22T12:50:12.816Z,30.45
2023-05-22T12:52:40.022Z,26.83
2023-05-22T12:55:07.759Z,29.88
2023-05-22T12:57:35.036Z,25.90
2023-05-22T13:00:02.295Z,30.55
2023-05-22T13:02:29.546Z,26.40
2023-05-22T13:04:56.679Z,30.20
2023-05-22T13:07:23.765Z,29.85
2023-05-22T13:09:50.875Z,28.45
2023-05-22T13:12:19.405Z,28.45
2023-05-22T13:14:46.739Z,32.17
2023-05-22T13:17:13.998Z,29.05
2023-05-22T13:19:41.070Z,28.65
2023-05-22T13:22:09.077Z,30.45
2023-05-22T13:24:36.341Z,25.73
2023-05-22T13:27:03.456Z,29.33
2023-05-22T13:29:30.726Z,28.58
2023-05-22T13:31:57.868Z,26.98
2023-05-22T13:34:25.134Z,32.05
2023-05-22T13:36:52.490Z,33.22
2023-05-22T13:39:19.653Z,27.95
2023-05-22T13:41:46.831Z,30.13
2023-05-22T13:44:14.122Z,27.58
2023-05-22T13:46:41.345Z,28.42
2023-05-22T13:49:08.499Z,28.10
2023-05-22T13:51:35.925Z,29.13
2023-05-22T13:54:03.386Z,30.23
2023-05-22T13:56:30.816Z,29.58
2023-05-22T13:58:57.992Z,28.35
2023-05-22T14:01:25.507Z,30.48
2023-05-22T14:03:52.687Z,28.27
2023-05-22T14:06:19.890Z,27.98
2023-05-22T14:08:46.932Z,25.90
2023-05-22T14:11:14.063Z,27.33
2023-05-22T14:13:41.102Z,29.48
2023-05-22T14:16:08.293Z,29.63
2023-05-22T14:18:35.495Z,29.40
2023-05-22T14:21:04.632Z,27.63
2023-05-22T14:23:32.129Z,31.08
2023-05-22T14:25:59.253Z,30.13
2023-05-22T14:28:26.832Z,28.75
2023-05-22T14:30:53.980Z,28.48
2023-05-22T14:33:21.131Z,28.65
2023-05-22T14:35:48.712Z,30.75
2023-05-22T14:38:15.812Z,29.33
2023-05-22T14:40:43.069Z,26.95
2023-05-22T14:43:10.495Z,28.42
2023-05-22T14:45:37.745Z,29.48
2023-05-22T14:48:05.140Z,28.45
2023-05-22T14:50:32.429Z,28.98
2023-05-22T14:52:59.503Z,29.02
2023-05-22T14:55:28.300Z,28.40
2023-05-22T14:57:56.414Z,27.60
2023-05-22T15:00:23.558Z,26.58
2023-05-22T15:02:50.785Z,30.30
2023-05-22T15:05:17.960Z,29.25
2023-05-22T15:07:47.187Z,31.25
2023-05-22T15:10:15.643Z,30.05
2023-05-22T15:12:42.784Z,28.25
2023-05-22T15:15:10.245Z,30.73
2023-05-22T15:17:37.395Z,32.28
2023-05-22T15:20:05.777Z,31.80
2023-05-22T15:22:32.821Z,29.52
2023-05-22T15:25:05.570Z,31.63
2023-05-22T15:27:35.253Z,33.03
2023-05-22T15:30:03.612Z,33.70
2023-05-22T15:32:32.597Z,33.10
2023-05-22T15:34:59.742Z,29.45
2023-05-22T15:37:28.621Z,30.52
2023-05-22T15:39:56.747Z,30.10
2023-05-22T15:42:23.794Z,29.58
2023-05-22T15:44:50.927Z,29.95
2023-05-22T15:47:18.845Z,29.52
2023-05-22T15:49:45.982Z,31.60
2023-05-22T15:52:13.056Z,30.00
2023-05-22T15:54:40.220Z,30.63
2023-05-22T15:57:07.325Z,30.60
2023-05-22T15:59:34.497Z,31.00
2023-05-22T16:02:01.699Z,30.05
2023-05-22T16:04:28.798Z,33.83
2023-05-22T16:06:55.928Z,33.80
2023-05-22T16:09:22.983Z,32.05
2023-05-22T16:11:50.066Z,32.83
2023-05-22T16:14:17.247Z,30.65
2023-05-22T16:16:44.319Z,33.28
2023-05-22T16:19:11.777Z,31.33
2023-05-22T16:21:39.024Z,32.53
2023-05-22T16:24:07.257Z,32.35
2023-05-22T16:26:34.410Z,31.45
2023-05-22T16:29:01.496Z,33.33
2023-05-22T16:31:28.988Z,33.97
2023-05-22T16:33:56.236Z,33.20
2023-05-22T16:36:25.200Z,33.35
2023-05-22T16:38:54.119Z,33.78
2023-05-22T16:41:21.251Z,34.13
2023-05-22T16:43:48.407Z,32.25
2023-05-22T16:46:15.867Z,34.80
2023-05-22T16:48:43.023Z,31.80
2023-05-22T16:51:11.509Z,36.78
2023-05-22T16:53:40.201Z,36.88
2023-05-22T16:56:07.862Z,35.67
2023-05-22T16:58:34.902Z,36.90
2023-05-22T17:01:02.307Z,35.63
2023-05-22T17:03:29.529Z,34.80
2023-05-22T17:05:56.827Z,36.88
2023-05-22T17:08:24.015Z,35.92
2023-05-22T17:10:51.127Z,36.47
2023-05-22T17:13:21.117Z,35.65
2023-05-22T17:15:51.616Z,35.13
2023-05-22T17:18:22.512Z,36.55
2023-05-22T17:20:51.092Z,37.42
2023-05-22T17:23:18.500Z,36.78
2023-05-22T17:25:46.944Z,36.72
2023-05-22T17:28:14.960Z,37.92
2023-05-22T17:30:43.301Z,37.53
2023-05-22T17:33:11.219Z,36.38
2023-05-22T17:35:38.539Z,36.47
2023-05-22T17:38:07.969Z,35.75
2023-05-22T17:40:44.703Z,38.38
2023-05-22T17:43:12.422Z,37.78
2023-05-22T17:45:40.340Z,40.45
2023-05-22T17:48:08.314Z,40.92
2023-05-22T17:50:35.629Z,40.33
2023-05-22T17:53:03.146Z,41.05
2023-05-22T17:55:30.222Z,37.85
2023-05-22T17:57:57.992Z,37.63
2023-05-22T18:00:25.054Z,39.60
2023-05-22T18:02:52.216Z,38.15
2023-05-22T18:05:19.431Z,37.65
2023-05-22T18:07:46.501Z,38.55
2023-05-22T18:10:13.688Z,40.08
2023-05-22T18:12:41.067Z,39.13
2023-05-22T18:15:10.837Z,38.05
2023-05-22T18:17:45.041Z,37.50
2023-05-22T18:20:12.584Z,36.40
2023-05-22T18:22:40.169Z,36.90
2023-05-22T18:25:08.080Z,35.30
2023-05-22T18:27:36.376Z,37.58
2023-05-22T18:30:05.324Z,35.35
2023-05-22T18:32:32.612Z,36.45
2023-05-22T18:35:00.460Z,34.38
2023-05-22T18:37:28.677Z,33.58
2023-05-22T18:39:55.813Z,35.42
2023-05-22T18:42:22.976Z,33.92
2023-05-22T18:44:50.766Z,33.03
2023-05-22T18:47:18.166Z,35.05
2023-05-22T18:49:45.284Z,32.30
2023-05-22T18:52:12.611Z,32.60
2023-05-22T18:54:39.720Z,31.20
2023-05-22T18:57:07.120Z,31.02
2023-05-22T18:59:34.450Z,29.92
2023-05-22T19:02:03.026Z,25.92
2023-05-22T19:04:30.314Z,25.52
2023-05-22T19:06:57.821Z,19.75
2023-05-22T19:09:27.742Z,18.83
2023-05-22T19:11:54.845Z,18.20
2023-05-22T19:14:22.303Z,15.50
2023-05-22T19:16:49.563Z,14.60
2023-05-22T19:19:16.894Z,15.20
2023-05-22T19:21:44.034Z,14.05
2023-05-22T19:24:11.124Z,14.00
2023-05-22T19:26:38.223Z,13.63
2023-05-22T19:29:05.846Z,13.65
2023-05-22T19:31:33.018Z,12.60
2023-05-22T19:34:00.176Z,13.18
2023-05-22T19:36:27.399Z,12.70
2023-05-22T19:38:54.496Z,13.05
2023-05-22T19:41:24.063Z,13.65
2023-05-22T19:43:52.017Z,14.20
2023-05-22T19:46:19.134Z,13.55
2023-05-22T19:48:46.264Z,13.10
2023-05-22T19:51:13.499Z,13.93
2023-05-22T19:53:41.786Z,13.65
2023-05-22T19:56:08.896Z,13.48
2023-05-22T19:58:36.022Z,13.77
2023-05-22T20:01:06.039Z,13.18
2023-05-22T20:03:33.208Z,13.63
2023-05-22T20:06:00.644Z,14.57
2023-05-22T20:08:28.643Z,14.45
2023-05-22T20:10:55.891Z,13.98
2023-05-22T20:13:22.987Z,14.50
2023-05-22T20:15:53.463Z,13.15
2023-05-22T20:18:22.265Z,14.85
2023-05-22T20:20:49.711Z,13.93
2023-05-22T20:23:16.920Z,13.50
2023-05-22T20:25:44.010Z,13.63
2023-05-22T20:28:11.175Z,14.88
2023-05-22T20:30:38.314Z,15.32
2023-05-22T20:33:06.428Z,14.70
2023-05-22T20:35:34.024Z,16.33
2023-05-22T20:38:04.483Z,15.55
2023-05-22T20:40:35.002Z,15.82
2023-05-22T20:43:02.830Z,16.98
2023-05-22T20:45:30.821Z,16.55
2023-05-22T20:47:58.110Z,16.33
2023-05-22T20:50:25.240Z,17.75
2023-05-22T20:52:52.978Z,17.38
2023-05-22T20:55:20.129Z,18.35
2023-05-22T20:57:47.197Z,19.60
2023-05-22T21:00:14.915Z,20.27
2023-05-22T21:02:42.208Z,21.70
2023-05-22T21:05:09.840Z,21.52
2023-05-22T21:07:36.956Z,19.80
2023-05-22T21:10:04.994Z,20.35
2023-05-22T21:12:32.079Z,20.85
2023-05-22T21:14:59.161Z,19.75
2023-05-22T21:17:26.304Z,20.00
2023-05-22T21:19:53.754Z,19.10
2023-05-22T21:22:21.064Z,18.45
2023-05-22T21:24:48.567Z,18.13
2023-05-22T21:27:17.944Z,18.60
2023-05-22T21:29:45.295Z,16.80
2023-05-22T21:32:12.320Z,17.92
2023-05-22T21:34:39.404Z,16.98
2023-05-22T21:37:06.570Z,16.08
2023-05-22T21:39:33.657Z,16.30
2023-05-22T21:42:00.743Z,15.20
2023-05-22T21:44:27.880Z,14.63
2023-05-22T21:46:56.065Z,14.65
2023-05-22T21:49:23.248Z,13.65
2023-05-22T21:51:50.317Z,12.75
2023-05-22T21:54:17.353Z,13.27
2023-05-22T21:56:44.368Z,12.38
2023-05-22T21:59:11.839Z,11.70
2023-05-22T22:01:38.994Z,10.68
2023-05-22T22:04:06.273Z,11.90
2023-05-22T22:06:33.377Z,10.38
2023-05-22T22:09:00.545Z,11.23
2023-05-22T22:11:27.637Z,11.55
2023-05-22T22:13:55.152Z,10.55
2023-05-22T22:16:22.463Z,11.38
2023-05-22T22:18:50.559Z,11.35
2023-05-22T22:21:17.805Z,12.00
2023-05-22T22:23:44.940Z,12.93
2023-05-22T22:26:14.585Z,13.38
2023-05-22T22:28:41.627Z,14.55
2023-05-22T22:31:08.761Z,14.93
2023-05-22T22:33:36.011Z,13.70
2023-05-22T22:36:03.187Z,13.35
2023-05-22T22:38:33.021Z,12.98
2023-05-22T22:41:00.781Z,13.05
2023-05-22T22:43:27.814Z,12.60
2023-05-22T22:45:56.028Z,12.23
2023-05-22T22:48:23.456Z,12.55
2023-05-22T22:50:52.594Z,12.55
2023-05-22T22:53:19.982Z,12.40
2023-05-22T22:55:56.212Z,12.40
2023-05-22T22:58:23.472Z,12.18
2023-05-22T23:00:50.790Z,12.18
2023-05-22T23:03:17.869Z,12.27
2023-05-22T23:05:45.447Z,12.95
2023-05-22T23:08:12.980Z,12.02
2023-05-22T23:10:40.088Z,12.15
2023-05-22T23:13:07.181Z,13.15
2023-05-22T23:15:34.380Z,13.05
2023-05-22T23:18:01.574Z,13.00
2023-05-22T23:20:28.698Z,12.88
2023-05-22T23:22:56.120Z,13.30
2023-05-22T23:25:23.392Z,12.15
2023-05-22T23:27:50.750Z,12.10
2023-05-22T23:30:17.972Z,11.70
2023-05-22T23:32:45.029Z,11.40
2023-05-22T23:35:12.333Z,10.43
2023-05-22T23:37:39.361Z,10.68
2023-05-22T23:40:07.892Z,11.50
2023-05-22T23:42:36.328Z,10.65
2023-05-22T23:45:04.370Z,10.95
2023-05-22T23:47:31.850Z,10.55
2023-05-22T23:49:59.832Z,10.35
2023-05-22T23:52:27.260Z,9.73
2023-05-22T23:54:54.510Z,11.07
2023-05-22T23:57:21.717Z,10.70
2023-05-22T23:59:48.939Z,10.73
